WS16 weather

Scherrico Meadows Airport
Mosinee, Wisconsin, United States

Public forecast

Using degrees Fahrenheit for public forecast. Weather courtesy of forecast.io.

Closest aviation weather report (METAR) to Scherrico Meadows Airport

Closest report is Central Wisconsin Airport, 7.1 nm (13.1 km) SE. Retrieved 2020/02/18 13:53 UTC (2 hours ago):

KCWA 181353Z 31014G20KT 10SM SCT021 M07/M11 A3001

Closest aviation forecast (TAF) to Scherrico Meadows Airport

Closest forecast is Central Wisconsin Airport, 7.1 nm (13.1 km) SE. Retrieved 2020/02/18 12:27 UTC (3 hours ago):

TAF KCWA 181125Z 1812/1912 32013G21KT P6SM -SHSN BKN015 BKN025 TEMPO 1813/1815 SCT025 FM181500 30014G23KT P6SM BKN020 BKN035 FM182000 29014G23KT P6SM BKN035 FM190000 30010G16KT P6SM SCT030 FM190200 30007KT P6SM SKC